sensor_id;sensor_type;location;lat;lon;timestamp;temperature;humidity
62154;DHT22;48140;45.486;9.226;2023-08-24T01:03:42;30.60;85.50
62154;DHT22;48140;45.486;9.226;2023-08-24T01:06:08;30.60;85.70
62154;DHT22;48140;45.486;9.226;2023-08-24T01:08:33;30.50;85.90
62154;DHT22;48140;45.486;9.226;2023-08-24T01:11:02;30.60;86.20
62154;DHT22;48140;45.486;9.226;2023-08-24T01:13:30;30.60;86.70
62154;DHT22;48140;45.486;9.226;2023-08-24T01:18:42;30.50;86.60
62154;DHT22;48140;45.486;9.226;2023-08-24T01:21:08;30.50;87.10
62154;DHT22;48140;45.486;9.226;2023-08-24T01:28:31;30.40;88.20
62154;DHT22;48140;45.486;9.226;2023-08-24T01:30:56;30.40;88.70
62154;DHT22;48140;45.486;9.226;2023-08-24T01:33:22;30.40;89.50
62154;DHT22;48140;45.486;9.226;2023-08-24T01:35:47;30.40;90.20
62154;DHT22;48140;45.486;9.226;2023-08-24T01:38:13;30.30;90.40
62154;DHT22;48140;45.486;9.226;2023-08-24T01:43:24;30.10;91.10
62154;DHT22;48140;45.486;9.226;2023-08-24T01:45:51;30.10;91.40
62154;DHT22;48140;45.486;9.226;2023-08-24T01:48:17;30.10;91.50
62154;DHT22;48140;45.486;9.226;2023-08-24T01:50:42;30.10;91.70
62154;DHT22;48140;45.486;9.226;2023-08-24T01:53:09;30.10;91.80
62154;DHT22;48140;45.486;9.226;2023-08-24T01:55:34;30.00;92.00
62154;DHT22;48140;45.486;9.226;2023-08-24T01:58:00;30.00;92.10
62154;DHT22;48140;45.486;9.226;2023-08-24T02:00:26;30.00;92.20
62154;DHT22;48140;45.486;9.226;2023-08-24T02:02:51;30.00;92.40
62154;DHT22;48140;45.486;9.226;2023-08-24T02:05:17;30.00;92.50
62154;DHT22;48140;45.486;9.226;2023-08-24T02:07:42;30.00;92.30
62154;DHT22;48140;45.486;9.226;2023-08-24T02:10:08;30.00;92.20
62154;DHT22;48140;45.486;9.226;2023-08-24T02:12:33;30.00;92.30
62154;DHT22;48140;45.486;9.226;2023-08-24T02:14:59;30.10;92.40
62154;DHT22;48140;45.486;9.226;2023-08-24T02:17:25;30.10;92.30
62154;DHT22;48140;45.486;9.226;2023-08-24T02:19:51;30.10;92.40
62154;DHT22;48140;45.486;9.226;2023-08-24T02:22:16;30.00;92.60
62154;DHT22;48140;45.486;9.226;2023-08-24T02:24:42;30.10;92.70
62154;DHT22;48140;45.486;9.226;2023-08-24T02:27:07;30.00;92.80
62154;DHT22;48140;45.486;9.226;2023-08-24T02:29:33;30.00;92.70
62154;DHT22;48140;45.486;9.226;2023-08-24T02:31:59;30.00;92.80
62154;DHT22;48140;45.486;9.226;2023-08-24T02:34:25;30.10;92.90
62154;DHT22;48140;45.486;9.226;2023-08-24T02:36:50;30.00;93.20
62154;DHT22;48140;45.486;9.226;2023-08-24T02:39:16;29.90;93.50
62154;DHT22;48140;45.486;9.226;2023-08-24T02:41:41;30.00;93.90
62154;DHT22;48140;45.486;9.226;2023-08-24T02:44:07;29.90;93.90
62154;DHT22;48140;45.486;9.226;2023-08-24T02:46:32;29.90;94.20
62154;DHT22;48140;45.486;9.226;2023-08-24T02:48:59;29.80;94.60
62154;DHT22;48140;45.486;9.226;2023-08-24T02:51:24;29.70;95.00
62154;DHT22;48140;45.486;9.226;2023-08-24T02:53:50;29.70;95.40
62154;DHT22;48140;45.486;9.226;2023-08-24T02:56:16;29.70;95.80
62154;DHT22;48140;45.486;9.226;2023-08-24T02:58:41;29.60;96.00
62154;DHT22;48140;45.486;9.226;2023-08-24T03:01:07;29.60;96.20
62154;DHT22;48140;45.486;9.226;2023-08-24T03:03:35;29.60;96.40
62154;DHT22;48140;45.486;9.226;2023-08-24T03:06:02;29.60;96.60
62154;DHT22;48140;45.486;9.226;2023-08-24T03:08:28;29.50;96.80
62154;DHT22;48140;45.486;9.226;2023-08-24T03:10:54;29.50;97.00
62154;DHT22;48140;45.486;9.226;2023-08-24T03:13:20;29.50;97.00
62154;DHT22;48140;45.486;9.226;2023-08-24T03:15:46;29.50;97.40
62154;DHT22;48140;45.486;9.226;2023-08-24T03:18:12;29.50;97.50
62154;DHT22;48140;45.486;9.226;2023-08-24T03:20:38;29.50;97.30
62154;DHT22;48140;45.486;9.226;2023-08-24T03:23:04;29.60;97.20
62154;DHT22;48140;45.486;9.226;2023-08-24T03:25:29;29.60;97.10
62154;DHT22;48140;45.486;9.226;2023-08-24T03:27:55;29.60;97.20
62154;DHT22;48140;45.486;9.226;2023-08-24T03:30:20;29.60;97.20
62154;DHT22;48140;45.486;9.226;2023-08-24T03:32:47;29.60;97.30
62154;DHT22;48140;45.486;9.226;2023-08-24T03:35:13;29.50;97.40
62154;DHT22;48140;45.486;9.226;2023-08-24T03:37:39;29.50;97.50
62154;DHT22;48140;45.486;9.226;2023-08-24T03:40:05;29.50;97.60
62154;DHT22;48140;45.486;9.226;2023-08-24T03:42:32;29.50;97.70
62154;DHT22;48140;45.486;9.226;2023-08-24T03:44:59;29.50;97.80
62154;DHT22;48140;45.486;9.226;2023-08-24T03:47:24;29.40;97.90
62154;DHT22;48140;45.486;9.226;2023-08-24T03:49:50;29.50;98.00
62154;DHT22;48140;45.486;9.226;2023-08-24T03:52:15;29.40;98.10
62154;DHT22;48140;45.486;9.226;2023-08-24T03:54:41;29.40;98.20
62154;DHT22;48140;45.486;9.226;2023-08-24T03:57:06;29.40;98.20
62154;DHT22;48140;45.486;9.226;2023-08-24T03:59:32;29.40;98.50
62154;DHT22;48140;45.486;9.226;2023-08-24T04:01:57;29.30;98.70
62154;DHT22;48140;45.486;9.226;2023-08-24T04:04:27;29.40;98.60
62154;DHT22;48140;45.486;9.226;2023-08-24T04:06:54;29.30;98.60
62154;DHT22;48140;45.486;9.226;2023-08-24T04:09:19;29.30;98.80
62154;DHT22;48140;45.486;9.226;2023-08-24T04:11:45;29.30;98.80
62154;DHT22;48140;45.486;9.226;2023-08-24T04:14:10;29.30;98.50
62154;DHT22;48140;45.486;9.226;2023-08-24T04:16:36;29.30;98.80
62154;DHT22;48140;45.486;9.226;2023-08-24T04:19:01;29.30;98.90
62154;DHT22;48140;45.486;9.226;2023-08-24T04:21:27;29.30;99.00
62154;DHT22;48140;45.486;9.226;2023-08-24T04:23:52;29.20;99.00
62154;DHT22;48140;45.486;9.226;2023-08-24T04:26:18;29.20;98.80
62154;DHT22;48140;45.486;9.226;2023-08-24T04:28:43;29.20;99.00
62154;DHT22;48140;45.486;9.226;2023-08-24T04:31:09;29.20;98.80
62154;DHT22;48140;45.486;9.226;2023-08-24T04:33:34;29.20;99.00
62154;DHT22;48140;45.486;9.226;2023-08-24T04:36:01;29.30;99.10
62154;DHT22;48140;45.486;9.226;2023-08-24T04:38:28;29.30;99.10
62154;DHT22;48140;45.486;9.226;2023-08-24T04:40:54;29.30;98.60
62154;DHT22;48140;45.486;9.226;2023-08-24T04:43:21;29.30;98.70
62154;DHT22;48140;45.486;9.226;2023-08-24T04:45:51;29.30;98.40
62154;DHT22;48140;45.486;9.226;2023-08-24T04:48:19;29.40;98.40
62154;DHT22;48140;45.486;9.226;2023-08-24T04:50:45;29.40;98.20
62154;DHT22;48140;45.486;9.226;2023-08-24T04:53:14;29.40;98.10
62154;DHT22;48140;45.486;9.226;2023-08-24T04:55:40;29.40;98.10
62154;DHT22;48140;45.486;9.226;2023-08-24T04:58:06;29.40;98.20
62154;DHT22;48140;45.486;9.226;2023-08-24T05:00:32;29.40;98.20
62154;DHT22;48140;45.486;9.226;2023-08-24T05:02:58;29.40;98.20
62154;DHT22;48140;45.486;9.226;2023-08-24T05:05:26;29.40;98.00
62154;DHT22;48140;45.486;9.226;2023-08-24T05:07:53;29.50;97.30
62154;DHT22;48140;45.486;9.226;2023-08-24T05:10:20;29.50;97.30
62154;DHT22;48140;45.486;9.226;2023-08-24T05:12:45;29.50;97.70
62154;DHT22;48140;45.486;9.226;2023-08-24T05:15:10;29.50;97.40
62154;DHT22;48140;45.486;9.226;2023-08-24T05:17:36;29.60;97.40
62154;DHT22;48140;45.486;9.226;2023-08-24T05:20:02;29.70;97.30
62154;DHT22;48140;45.486;9.226;2023-08-24T05:22:29;29.70;97.20
62154;DHT22;48140;45.486;9.226;2023-08-24T05:24:54;29.70;96.70
62154;DHT22;48140;45.486;9.226;2023-08-24T05:27:19;29.70;96.70
62154;DHT22;48140;45.486;9.226;2023-08-24T05:29:45;29.80;96.20
62154;DHT22;48140;45.486;9.226;2023-08-24T05:32:10;29.90;95.80
62154;DHT22;48140;45.486;9.226;2023-08-24T05:34:36;29.90;95.60
62154;DHT22;48140;45.486;9.226;2023-08-24T05:37:01;29.90;95.50
62154;DHT22;48140;45.486;9.226;2023-08-24T05:39:27;30.00;94.90
62154;DHT22;48140;45.486;9.226;2023-08-24T05:41:52;30.10;94.40
62154;DHT22;48140;45.486;9.226;2023-08-24T05:44:18;30.20;94.00
62154;DHT22;48140;45.486;9.226;2023-08-24T05:46:44;30.20;94.20
62154;DHT22;48140;45.486;9.226;2023-08-24T05:49:09;30.30;93.90
62154;DHT22;48140;45.486;9.226;2023-08-24T05:51:35;30.40;92.70
62154;DHT22;48140;45.486;9.226;2023-08-24T05:54:01;30.40;92.50
62154;DHT22;48140;45.486;9.226;2023-08-24T05:56:26;30.40;92.70
62154;DHT22;48140;45.486;9.226;2023-08-24T05:58:53;30.50;92.90
62154;DHT22;48140;45.486;9.226;2023-08-24T06:01:19;30.50;91.90
62154;DHT22;48140;45.486;9.226;2023-08-24T06:03:44;30.60;91.90
62154;DHT22;48140;45.486;9.226;2023-08-24T06:06:10;30.70;91.30
62154;DHT22;48140;45.486;9.226;2023-08-24T06:08:35;30.80;91.10
62154;DHT22;48140;45.486;9.226;2023-08-24T06:11:01;30.80;90.90
62154;DHT22;48140;45.486;9.226;2023-08-24T06:13:27;30.90;90.30
62154;DHT22;48140;45.486;9.226;2023-08-24T06:15:52;31.00;90.30
62154;DHT22;48140;45.486;9.226;2023-08-24T06:18:18;31.10;90.20
62154;DHT22;48140;45.486;9.226;2023-08-24T06:20:43;31.10;89.60
62154;DHT22;48140;45.486;9.226;2023-08-24T06:23:09;31.20;88.80
62154;DHT22;48140;45.486;9.226;2023-08-24T06:25:35;31.30;88.40
62154;DHT22;48140;45.486;9.226;2023-08-24T06:28:00;31.40;86.90
62154;DHT22;48140;45.486;9.226;2023-08-24T06:30:29;31.40;87.30
62154;DHT22;48140;45.486;9.226;2023-08-24T06:32:58;31.40;86.20
62154;DHT22;48140;45.486;9.226;2023-08-24T06:35:24;31.50;84.90
62154;DHT22;48140;45.486;9.226;2023-08-24T06:37:49;31.50;85.40
62154;DHT22;48140;45.486;9.226;2023-08-24T06:40:15;31.50;84.30
62154;DHT22;48140;45.486;9.226;2023-08-24T06:42:42;31.50;84.10
62154;DHT22;48140;45.486;9.226;2023-08-24T06:45:08;31.50;83.30
62154;DHT22;48140;45.486;9.226;2023-08-24T06:47:35;31.60;82.70
62154;DHT22;48140;45.486;9.226;2023-08-24T06:50:00;31.70;82.00
62154;DHT22;48140;45.486;9.226;2023-08-24T06:52:26;31.70;82.00
62154;DHT22;48140;45.486;9.226;2023-08-24T06:54:51;31.80;81.00
62154;DHT22;48140;45.486;9.226;2023-08-24T06:57:18;32.00;81.00
62154;DHT22;48140;45.486;9.226;2023-08-24T06:59:44;32.10;80.50
62154;DHT22;48140;45.486;9.226;2023-08-24T07:02:09;32.20;79.90
62154;DHT22;48140;45.486;9.226;2023-08-24T07:04:35;32.10;79.30
62154;DHT22;48140;45.486;9.226;2023-08-24T07:07:02;32.20;78.00
62154;DHT22;48140;45.486;9.226;2023-08-24T07:09:27;32.30;75.80
62154;DHT22;48140;45.486;9.226;2023-08-24T07:11:53;32.20;75.50
62154;DHT22;48140;45.486;9.226;2023-08-24T07:14:19;32.20;75.40
62154;DHT22;48140;45.486;9.226;2023-08-24T07:16:44;32.30;75.00
62154;DHT22;48140;45.486;9.226;2023-08-24T07:19:10;32.30;75.40
62154;DHT22;48140;45.486;9.226;2023-08-24T07:21:35;32.30;74.90
62154;DHT22;48140;45.486;9.226;2023-08-24T07:24:00;32.30;75.30
62154;DHT22;48140;45.486;9.226;2023-08-24T07:26:26;32.30;75.50
62154;DHT22;48140;45.486;9.226;2023-08-24T07:28:52;32.40;75.40
62154;DHT22;48140;45.486;9.226;2023-08-24T07:31:17;32.40;71.50
62154;DHT22;48140;45.486;9.226;2023-08-24T07:33:44;32.40;73.90
62154;DHT22;48140;45.486;9.226;2023-08-24T07:36:09;32.40;72.00
62154;DHT22;48140;45.486;9.226;2023-08-24T07:38:35;32.50;72.50
62154;DHT22;48140;45.486;9.226;2023-08-24T07:41:01;32.60;71.60
62154;DHT22;48140;45.486;9.226;2023-08-24T07:43:27;32.70;71.60
62154;DHT22;48140;45.486;9.226;2023-08-24T07:45:52;32.70;71.10
62154;DHT22;48140;45.486;9.226;2023-08-24T07:48:18;32.80;71.30
62154;DHT22;48140;45.486;9.226;2023-08-24T07:50:43;32.90;68.80
62154;DHT22;48140;45.486;9.226;2023-08-24T07:53:09;33.00;65.60
62154;DHT22;48140;45.486;9.226;2023-08-24T07:55:34;32.90;65.80
62154;DHT22;48140;45.486;9.226;2023-08-24T07:58:00;33.00;66.10
62154;DHT22;48140;45.486;9.226;2023-08-24T08:00:26;33.10;65.40
62154;DHT22;48140;45.486;9.226;2023-08-24T08:02:51;33.20;65.30
62154;DHT22;48140;45.486;9.226;2023-08-24T08:05:17;33.40;64.70
62154;DHT22;48140;45.486;9.226;2023-08-24T08:07:43;33.30;63.50
62154;DHT22;48140;45.486;9.226;2023-08-24T08:10:09;33.50;63.40
62154;DHT22;48140;45.486;9.226;2023-08-24T08:12:34;33.60;63.20
62154;DHT22;48140;45.486;9.226;2023-08-24T08:15:00;33.70;62.00
62154;DHT22;48140;45.486;9.226;2023-08-24T08:17:26;33.50;61.60
62154;DHT22;48140;45.486;9.226;2023-08-24T08:19:56;33.70;60.10
62154;DHT22;48140;45.486;9.226;2023-08-24T08:22:22;33.80;59.40
62154;DHT22;48140;45.486;9.226;2023-08-24T08:24:47;33.60;59.20
62154;DHT22;48140;45.486;9.226;2023-08-24T08:27:13;33.70;59.50
62154;DHT22;48140;45.486;9.226;2023-08-24T08:29:38;33.60;59.70
62154;DHT22;48140;45.486;9.226;2023-08-24T08:32:04;33.70;59.60
62154;DHT22;48140;45.486;9.226;2023-08-24T08:34:31;33.70;59.20
62154;DHT22;48140;45.486;9.226;2023-08-24T08:36:56;33.80;59.60
62154;DHT22;48140;45.486;9.226;2023-08-24T08:39:22;33.90;58.00
62154;DHT22;48140;45.486;9.226;2023-08-24T08:41:48;33.90;57.20
62154;DHT22;48140;45.486;9.226;2023-08-24T08:44:14;33.90;57.30
62154;DHT22;48140;45.486;9.226;2023-08-24T08:46:41;33.90;55.80
62154;DHT22;48140;45.486;9.226;2023-08-24T08:49:06;33.90;53.50
62154;DHT22;48140;45.486;9.226;2023-08-24T08:51:33;34.00;51.60
62154;DHT22;48140;45.486;9.226;2023-08-24T08:53:59;33.90;48.70
62154;DHT22;48140;45.486;9.226;2023-08-24T08:56:25;34.10;48.80
62154;DHT22;48140;45.486;9.226;2023-08-24T08:58:51;34.10;48.90
62154;DHT22;48140;45.486;9.226;2023-08-24T09:01:17;34.40;48.80
62154;DHT22;48140;45.486;9.226;2023-08-24T09:03:44;34.50;48.70
62154;DHT22;48140;45.486;9.226;2023-08-24T09:06:10;34.50;50.00
62154;DHT22;48140;45.486;9.226;2023-08-24T09:08:35;34.60;51.10
62154;DHT22;48140;45.486;9.226;2023-08-24T09:11:01;34.80;51.70
62154;DHT22;48140;45.486;9.226;2023-08-24T09:13:28;34.90;51.30
62154;DHT22;48140;45.486;9.226;2023-08-24T09:15:54;34.90;51.10
62154;DHT22;48140;45.486;9.226;2023-08-24T09:18:19;35.00;51.30
62154;DHT22;48140;45.486;9.226;2023-08-24T09:20:46;35.00;51.70
62154;DHT22;48140;45.486;9.226;2023-08-24T09:23:17;35.00;51.20
62154;DHT22;48140;45.486;9.226;2023-08-24T09:25:46;34.90;50.60
62154;DHT22;48140;45.486;9.226;2023-08-24T09:28:13;34.80;52.70
62154;DHT22;48140;45.486;9.226;2023-08-24T09:30:39;34.70;52.40
62154;DHT22;48140;45.486;9.226;2023-08-24T09:33:09;35.00;52.20
62154;DHT22;48140;45.486;9.226;2023-08-24T09:35:34;35.20;51.10
62154;DHT22;48140;45.486;9.226;2023-08-24T09:41:01;35.20;49.50
62154;DHT22;48140;45.486;9.226;2023-08-24T09:43:27;35.50;48.30
62154;DHT22;48140;45.486;9.226;2023-08-24T09:45:56;35.40;48.60
62154;DHT22;48140;45.486;9.226;2023-08-24T09:48:22;35.30;49.30
62154;DHT22;48140;45.486;9.226;2023-08-24T09:50:49;35.50;48.60
62154;DHT22;48140;45.486;9.226;2023-08-24T09:53:22;35.80;48.30
62154;DHT22;48140;45.486;9.226;2023-08-24T09:55:55;35.60;48.40
62154;DHT22;48140;45.486;9.226;2023-08-24T09:58:21;35.80;48.70
62154;DHT22;48140;45.486;9.226;2023-08-24T10:00:47;36.00;48.20
62154;DHT22;48140;45.486;9.226;2023-08-24T10:03:35;35.90;44.90
62154;DHT22;48140;45.486;9.226;2023-08-24T10:06:00;36.00;39.20
62154;DHT22;48140;45.486;9.226;2023-08-24T10:08:27;36.30;40.40
62154;DHT22;48140;45.486;9.226;2023-08-24T10:10:53;36.60;41.80
62154;DHT22;48140;45.486;9.226;2023-08-24T10:14:04;36.60;42.60
62154;DHT22;48140;45.486;9.226;2023-08-24T10:16:09;36.70;43.20
62154;DHT22;48140;45.486;9.226;2023-08-24T10:18:38;36.80;40.10
62154;DHT22;48140;45.486;9.226;2023-08-24T10:21:05;37.20;39.30
62154;DHT22;48140;45.486;9.226;2023-08-24T10:23:31;37.30;38.50
62154;DHT22;48140;45.486;9.226;2023-08-24T10:25:56;37.30;37.50
62154;DHT22;48140;45.486;9.226;2023-08-24T10:28:23;37.30;38.10
62154;DHT22;48140;45.486;9.226;2023-08-24T10:30:50;37.30;38.40
62154;DHT22;48140;45.486;9.226;2023-08-24T10:33:16;37.50;37.10
62154;DHT22;48140;45.486;9.226;2023-08-24T10:35:43;37.50;37.00
62154;DHT22;48140;45.486;9.226;2023-08-24T10:38:09;37.40;37.20
62154;DHT22;48140;45.486;9.226;2023-08-24T10:40:47;37.70;38.40
62154;DHT22;48140;45.486;9.226;2023-08-24T10:43:13;37.80;38.90
62154;DHT22;48140;45.486;9.226;2023-08-24T10:45:54;38.00;38.60
62154;DHT22;48140;45.486;9.226;2023-08-24T10:48:21;38.00;39.10
62154;DHT22;48140;45.486;9.226;2023-08-24T10:51:15;38.30;38.20
62154;DHT22;48140;45.486;9.226;2023-08-24T10:53:45;37.80;38.00
62154;DHT22;48140;45.486;9.226;2023-08-24T10:56:14;38.10;39.00
62154;DHT22;48140;45.486;9.226;2023-08-24T10:58:40;38.60;39.10
62154;DHT22;48140;45.486;9.226;2023-08-24T11:01:05;38.60;39.20
62154;DHT22;48140;45.486;9.226;2023-08-24T11:03:31;38.70;38.90
62154;DHT22;48140;45.486;9.226;2023-08-24T11:05:58;38.60;38.40
62154;DHT22;48140;45.486;9.226;2023-08-24T11:08:43;38.80;38.30
62154;DHT22;48140;45.486;9.226;2023-08-24T11:11:30;38.90;37.70
62154;DHT22;48140;45.486;9.226;2023-08-24T11:16:59;39.00;35.50
62154;DHT22;48140;45.486;9.226;2023-08-24T11:19:25;38.50;36.20
62154;DHT22;48140;45.486;9.226;2023-08-24T11:21:51;38.70;35.40
62154;DHT22;48140;45.486;9.226;2023-08-24T11:24:16;39.00;35.30
62154;DHT22;48140;45.486;9.226;2023-08-24T11:26:45;39.10;34.80
62154;DHT22;48140;45.486;9.226;2023-08-24T11:29:11;39.00;34.50
62154;DHT22;48140;45.486;9.226;2023-08-24T11:31:37;39.10;34.80
62154;DHT22;48140;45.486;9.226;2023-08-24T11:34:03;39.70;34.50
62154;DHT22;48140;45.486;9.226;2023-08-24T11:36:30;40.00;34.60
62154;DHT22;48140;45.486;9.226;2023-08-24T11:38:59;40.20;33.40
62154;DHT22;48140;45.486;9.226;2023-08-24T11:41:25;40.20;33.40
62154;DHT22;48140;45.486;9.226;2023-08-24T11:43:58;39.90;33.10
62154;DHT22;48140;45.486;9.226;2023-08-24T11:46:23;39.70;33.30
62154;DHT22;48140;45.486;9.226;2023-08-24T11:48:49;40.00;33.70
62154;DHT22;48140;45.486;9.226;2023-08-24T11:51:14;40.30;32.50
62154;DHT22;48140;45.486;9.226;2023-08-24T11:53:41;40.30;32.10
62154;DHT22;48140;45.486;9.226;2023-08-24T11:56:10;39.80;32.70
62154;DHT22;48140;45.486;9.226;2023-08-24T12:01:05;40.00;32.20
62154;DHT22;48140;45.486;9.226;2023-08-24T12:03:31;39.80;32.70
62154;DHT22;48140;45.486;9.226;2023-08-24T12:06:00;39.90;32.90
62154;DHT22;48140;45.486;9.226;2023-08-24T12:08:26;40.20;32.70
62154;DHT22;48140;45.486;9.226;2023-08-24T12:10:51;40.60;32.00
62154;DHT22;48140;45.486;9.226;2023-08-24T12:13:17;41.00;31.10
62154;DHT22;48140;45.486;9.226;2023-08-24T12:15:44;40.80;31.00
62154;DHT22;48140;45.486;9.226;2023-08-24T12:18:11;41.10;30.70
62154;DHT22;48140;45.486;9.226;2023-08-24T12:20:36;41.60;30.00
62154;DHT22;48140;45.486;9.226;2023-08-24T12:23:02;41.50;29.60
62154;DHT22;48140;45.486;9.226;2023-08-24T12:25:28;41.20;29.50
62154;DHT22;48140;45.486;9.226;2023-08-24T12:28:09;40.80;30.00
62154;DHT22;48140;45.486;9.226;2023-08-24T12:30:45;40.30;30.70
62154;DHT22;48140;45.486;9.226;2023-08-24T12:33:25;40.90;30.20
62154;DHT22;48140;45.486;9.226;2023-08-24T12:35:51;41.20;30.00
62154;DHT22;48140;45.486;9.226;2023-08-24T12:38:17;41.30;29.80
62154;DHT22;48140;45.486;9.226;2023-08-24T12:40:42;41.60;29.50
62154;DHT22;48140;45.486;9.226;2023-08-24T12:43:08;41.70;29.50
62154;DHT22;48140;45.486;9.226;2023-08-24T12:45:33;41.80;29.50
62154;DHT22;48140;45.486;9.226;2023-08-24T12:47:59;42.10;29.00
62154;DHT22;48140;45.486;9.226;2023-08-24T12:50:24;41.80;29.20
62154;DHT22;48140;45.486;9.226;2023-08-24T12:52:50;41.60;29.30
62154;DHT22;48140;45.486;9.226;2023-08-24T12:55:20;41.20;29.70
62154;DHT22;48140;45.486;9.226;2023-08-24T12:57:46;41.20;29.80
62154;DHT22;48140;45.486;9.226;2023-08-24T13:00:12;41.60;30.00
62154;DHT22;48140;45.486;9.226;2023-08-24T13:02:38;41.70;29.00
62154;DHT22;48140;45.486;9.226;2023-08-24T13:05:04;42.00;29.00
62154;DHT22;48140;45.486;9.226;2023-08-24T13:07:31;41.80;28.80
62154;DHT22;48140;45.486;9.226;2023-08-24T13:09:56;42.00;29.20
62154;DHT22;48140;45.486;9.226;2023-08-24T13:12:23;42.40;28.30
62154;DHT22;48140;45.486;9.226;2023-08-24T13:14:49;42.60;27.90
62154;DHT22;48140;45.486;9.226;2023-08-24T13:17:15;42.50;27.50
62154;DHT22;48140;45.486;9.226;2023-08-24T13:19:40;42.50;27.80
62154;DHT22;48140;45.486;9.226;2023-08-24T13:22:06;42.80;27.60
62154;DHT22;48140;45.486;9.226;2023-08-24T13:24:33;42.70;27.60
62154;DHT22;48140;45.486;9.226;2023-08-24T13:26:59;42.80;27.70
62154;DHT22;48140;45.486;9.226;2023-08-24T13:29:24;42.90;27.40
62154;DHT22;48140;45.486;9.226;2023-08-24T13:31:50;42.10;27.60
62154;DHT22;48140;45.486;9.226;2023-08-24T13:34:16;41.70;28.10
62154;DHT22;48140;45.486;9.226;2023-08-24T13:36:41;41.80;28.20
62154;DHT22;48140;45.486;9.226;2023-08-24T13:39:07;41.80;28.00
62154;DHT22;48140;45.486;9.226;2023-08-24T13:41:32;42.00;27.90
62154;DHT22;48140;45.486;9.226;2023-08-24T13:43:58;42.40;27.70
62154;DHT22;48140;45.486;9.226;2023-08-24T13:46:23;42.80;27.40
62154;DHT22;48140;45.486;9.226;2023-08-24T13:48:49;42.50;27.30
62154;DHT22;48140;45.486;9.226;2023-08-24T13:51:14;42.50;27.40
62154;DHT22;48140;45.486;9.226;2023-08-24T13:53:40;42.10;27.10
62154;DHT22;48140;45.486;9.226;2023-08-24T13:56:05;42.60;27.10
62154;DHT22;48140;45.486;9.226;2023-08-24T13:58:32;43.00;26.80
62154;DHT22;48140;45.486;9.226;2023-08-24T14:00:58;42.80;26.70
62154;DHT22;48140;45.486;9.226;2023-08-24T14:03:23;42.40;26.70
62154;DHT22;48140;45.486;9.226;2023-08-24T14:05:49;42.30;26.70
62154;DHT22;48140;45.486;9.226;2023-08-24T14:08:16;43.10;26.40
62154;DHT22;48140;45.486;9.226;2023-08-24T14:10:42;43.20;26.30
62154;DHT22;48140;45.486;9.226;2023-08-24T14:13:07;43.50;26.10
62154;DHT22;48140;45.486;9.226;2023-08-24T14:15:33;44.00;25.20
62154;DHT22;48140;45.486;9.226;2023-08-24T14:17:58;43.70;25.30
62154;DHT22;48140;45.486;9.226;2023-08-24T14:20:24;43.30;25.70
62154;DHT22;48140;45.486;9.226;2023-08-24T14:22:49;42.90;25.90
62154;DHT22;48140;45.486;9.226;2023-08-24T14:25:15;42.70;26.20
62154;DHT22;48140;45.486;9.226;2023-08-24T14:27:40;42.90;26.30
62154;DHT22;48140;45.486;9.226;2023-08-24T14:30:07;43.30;25.70
62154;DHT22;48140;45.486;9.226;2023-08-24T14:32:33;43.20;25.60
62154;DHT22;48140;45.486;9.226;2023-08-24T14:34:58;42.80;25.90
62154;DHT22;48140;45.486;9.226;2023-08-24T14:37:24;42.80;25.90
62154;DHT22;48140;45.486;9.226;2023-08-24T14:39:49;42.40;26.30
62154;DHT22;48140;45.486;9.226;2023-08-24T14:42:15;42.70;26.20
62154;DHT22;48140;45.486;9.226;2023-08-24T14:44:40;42.50;26.10
62154;DHT22;48140;45.486;9.226;2023-08-24T14:47:06;42.30;26.60
62154;DHT22;48140;45.486;9.226;2023-08-24T14:49:31;42.30;26.40
62154;DHT22;48140;45.486;9.226;2023-08-24T14:51:57;42.40;26.30
62154;DHT22;48140;45.486;9.226;2023-08-24T14:54:23;42.30;26.30
62154;DHT22;48140;45.486;9.226;2023-08-24T14:56:48;42.40;26.30
62154;DHT22;48140;45.486;9.226;2023-08-24T14:59:14;42.40;26.40
62154;DHT22;48140;45.486;9.226;2023-08-24T15:01:40;42.90;25.90
62154;DHT22;48140;45.486;9.226;2023-08-24T15:04:05;42.70;26.00
62154;DHT22;48140;45.486;9.226;2023-08-24T15:06:31;42.30;26.00
62154;DHT22;48140;45.486;9.226;2023-08-24T15:08:56;41.70;26.10
62154;DHT22;48140;45.486;9.226;2023-08-24T15:11:23;41.40;26.70
62154;DHT22;48140;45.486;9.226;2023-08-24T15:13:48;41.30;26.80
62154;DHT22;48140;45.486;9.226;2023-08-24T15:16:15;40.70;27.20
62154;DHT22;48140;45.486;9.226;2023-08-24T15:18:40;40.50;28.10
62154;DHT22;48140;45.486;9.226;2023-08-24T15:21:06;40.50;28.30
62154;DHT22;48140;45.486;9.226;2023-08-24T15:23:31;40.70;28.20
62154;DHT22;48140;45.486;9.226;2023-08-24T15:25:58;40.50;27.90
62154;DHT22;48140;45.486;9.226;2023-08-24T15:28:24;40.60;27.70
62154;DHT22;48140;45.486;9.226;2023-08-24T15:30:49;41.00;27.80
62154;DHT22;48140;45.486;9.226;2023-08-24T15:33:15;41.40;27.40
62154;DHT22;48140;45.486;9.226;2023-08-24T15:35:41;42.00;27.10
62154;DHT22;48140;45.486;9.226;2023-08-24T15:38:08;42.00;26.20
62154;DHT22;48140;45.486;9.226;2023-08-24T15:40:33;41.70;26.30
62154;DHT22;48140;45.486;9.226;2023-08-24T15:43:00;41.90;26.50
62154;DHT22;48140;45.486;9.226;2023-08-24T15:45:27;42.10;26.30
62154;DHT22;48140;45.486;9.226;2023-08-24T15:47:53;42.30;26.00
62154;DHT22;48140;45.486;9.226;2023-08-24T15:50:18;42.50;26.00
62154;DHT22;48140;45.486;9.226;2023-08-24T15:52:44;42.20;26.00
62154;DHT22;48140;45.486;9.226;2023-08-24T15:55:09;42.30;25.90
62154;DHT22;48140;45.486;9.226;2023-08-24T15:57:35;42.20;26.00
62154;DHT22;48140;45.486;9.226;2023-08-24T16:00:00;42.10;26.00
62154;DHT22;48140;45.486;9.226;2023-08-24T16:02:26;41.80;26.30
62154;DHT22;48140;45.486;9.226;2023-08-24T16:04:51;41.30;26.70
62154;DHT22;48140;45.486;9.226;2023-08-24T16:07:18;41.00;27.00
62154;DHT22;48140;45.486;9.226;2023-08-24T16:09:44;40.50;27.30
62154;DHT22;48140;45.486;9.226;2023-08-24T16:12:09;40.20;28.00
62154;DHT22;48140;45.486;9.226;2023-08-24T16:14:35;40.00;28.30
62154;DHT22;48140;45.486;9.226;2023-08-24T16:17:01;39.80;28.50
62154;DHT22;48140;45.486;9.226;2023-08-24T16:19:26;39.70;29.10
62154;DHT22;48140;45.486;9.226;2023-08-24T16:21:52;39.50;28.80
62154;DHT22;48140;45.486;9.226;2023-08-24T16:24:18;39.60;29.00
62154;DHT22;48140;45.486;9.226;2023-08-24T16:26:43;39.30;29.10
62154;DHT22;48140;45.486;9.226;2023-08-24T16:29:11;39.30;29.20
62154;DHT22;48140;45.486;9.226;2023-08-24T16:31:37;39.30;29.50
62154;DHT22;48140;45.486;9.226;2023-08-24T16:34:02;39.30;29.50
62154;DHT22;48140;45.486;9.226;2023-08-24T16:36:29;39.00;30.00
62154;DHT22;48140;45.486;9.226;2023-08-24T16:38:55;39.00;30.00
62154;DHT22;48140;45.486;9.226;2023-08-24T16:41:21;39.00;30.20
62154;DHT22;48140;45.486;9.226;2023-08-24T16:43:47;38.70;30.50
62154;DHT22;48140;45.486;9.226;2023-08-24T16:46:12;38.90;30.40